Time;durP1;ratioP1;P1;durP2;ratioP2;P2;SDS_P1;SDS_P2;PMS_P1;PMS_P2;Temp;Humidity;BMP_temperature;BMP_pressure;BME280_temperature;BME280_humidity;BME280_pressure;Samples;Min_cycle;Max_cycle;Signal;HPM_P1;HPM_P2
2022/05/29 00:00:19;;;;;;;0.80;0.80;;;;;;;;;;5136485;28;20226;-60
2022/05/29 00:02:48;;;;;;;0.93;0.82;;;;;;;;;;5140291;27;20271;-60
2022/05/29 00:05:17;;;;;;;1.10;0.82;;;;;;;;;;5140117;27;20309;-60
2022/05/29 00:07:47;;;;;;;1.42;0.95;;;;;;;;;;5140309;27;20203;-60
2022/05/29 00:10:15;;;;;;;0.77;0.77;;;;;;;;;;5140366;27;20198;-60
2022/05/29 00:12:43;;;;;;;1.17;1.05;;;;;;;;;;5140112;27;20607;-60
2022/05/29 00:15:11;;;;;;;1.10;0.70;;;;;;;;;;5140168;27;20213;-60
2022/05/29 00:17:38;;;;;;;0.75;0.60;;;;;;;;;;5140227;27;20222;-60
2022/05/29 00:20:07;;;;;;;1.33;0.68;;;;;;;;;;5139906;27;20233;-60
2022/05/29 00:22:36;;;;;;;2.05;0.80;;;;;;;;;;5140368;27;20587;-60
2022/05/29 00:25:05;;;;;;;1.10;1.00;;;;;;;;;;5139397;27;20202;-61
2022/05/29 00:27:32;;;;;;;0.88;0.73;;;;;;;;;;5140241;27;20214;-60
2022/05/29 00:29:59;;;;;;;0.93;0.90;;;;;;;;;;5140325;27;20591;-60
2022/05/29 00:32:27;;;;;;;1.10;0.80;;;;;;;;;;5140410;27;20202;-60
2022/05/29 00:34:55;;;;;;;0.82;0.70;;;;;;;;;;5140052;27;20203;-60
2022/05/29 00:37:22;;;;;;;0.77;0.77;;;;;;;;;;5139999;27;20210;-60
2022/05/29 00:39:52;;;;;;;0.70;0.60;;;;;;;;;;5139879;27;20202;-60
2022/05/29 00:42:21;;;;;;;0.70;0.70;;;;;;;;;;5139678;27;20206;-60
2022/05/29 00:44:49;;;;;;;0.82;0.82;;;;;;;;;;5140189;27;20202;-61
2022/05/29 00:47:17;;;;;;;0.80;0.70;;;;;;;;;;5140557;27;20631;-60
2022/05/29 00:49:46;;;;;;;0.90;0.90;;;;;;;;;;5140344;27;20203;-60
2022/05/29 00:52:16;;;;;;;0.93;0.93;;;;;;;;;;5140448;27;20588;-60
2022/05/29 00:54:45;;;;;;;0.80;0.80;;;;;;;;;;5139936;27;20241;-60
2022/05/29 00:57:16;;;;;;;0.80;0.80;;;;;;;;;;5139376;27;20617;-60
2022/05/29 00:59:44;;;;;;;0.90;0.80;;;;;;;;;;5139851;27;20202;-60
2022/05/29 01:02:12;;;;;;;1.27;0.90;;;;;;;;;;5140325;27;20308;-60
2022/05/29 01:04:40;;;;;;;1.35;0.80;;;;;;;;;;5140258;27;20569;-60
2022/05/29 01:07:09;;;;;;;0.82;0.73;;;;;;;;;;5140171;27;20195;-61
2022/05/29 01:09:37;;;;;;;0.80;0.80;;;;;;;;;;5140094;27;20203;-60
2022/05/29 01:12:08;;;;;;;0.80;0.80;;;;;;;;;;5140275;27;20501;-60
2022/05/29 01:14:47;;;;;;;1.10;0.77;;;;;;;;;;5138977;27;20301;-60
2022/05/29 01:17:20;;;;;;;0.80;0.80;;;;;;;;;;5139917;27;20206;-60
2022/05/29 01:20:03;;;;;;;1.00;0.82;;;;;;;;;;5139852;27;20202;-60
2022/05/29 01:22:49;;;;;;;0.88;0.88;;;;;;;;;;5140093;27;20270;-60
2022/05/29 01:25:33;;;;;;;1.10;1.00;;;;;;;;;;5092085;27;20297;-60
2022/05/29 01:28:13;;;;;;;0.95;0.85;;;;;;;;;;5139445;27;20608;-61
2022/05/29 01:30:43;;;;;;;0.90;0.75;;;;;;;;;;5139497;27;20198;-60
2022/05/29 01:33:18;;;;;;;1.00;0.90;;;;;;;;;;5139060;27;20202;-60
2022/05/29 01:35:47;;;;;;;1.00;0.82;;;;;;;;;;5138251;27;20204;-60
2022/05/29 01:38:18;;;;;;;1.05;1.00;;;;;;;;;;5139314;27;20214;-60
2022/05/29 01:40:49;;;;;;;1.13;1.00;;;;;;;;;;5139482;27;20236;-60
2022/05/29 01:43:21;;;;;;;0.98;0.80;;;;;;;;;;5139509;27;20577;-60
2022/05/29 01:45:56;;;;;;;1.27;1.00;;;;;;;;;;5139766;27;20210;-60
2022/05/29 01:48:38;;;;;;;1.25;1.10;;;;;;;;;;5139488;27;20228;-60
2022/05/29 01:51:09;;;;;;;0.82;0.80;;;;;;;;;;5138182;27;20198;-60
2022/05/29 01:53:39;;;;;;;0.95;0.85;;;;;;;;;;5139109;27;20202;-60
2022/05/29 01:56:12;;;;;;;1.20;0.88;;;;;;;;;;5138554;27;20234;-60
2022/05/29 01:58:43;;;;;;;0.77;0.70;;;;;;;;;;5139502;27;20210;-60
2022/05/29 02:01:12;;;;;;;1.00;0.90;;;;;;;;;;5138607;27;20222;-60
2022/05/29 02:03:40;;;;;;;1.25;1.00;;;;;;;;;;5137510;27;20587;-60
2022/05/29 02:06:11;;;;;;;1.00;0.82;;;;;;;;;;5118003;28;20214;-60
2022/05/29 02:08:43;;;;;;;1.10;0.90;;;;;;;;;;5117285;28;20211;-60
2022/05/29 02:11:12;;;;;;;1.15;0.82;;;;;;;;;;5118008;28;20302;-60
2022/05/29 02:13:43;;;;;;;0.93;0.90;;;;;;;;;;5117485;28;20234;-61
2022/05/29 02:16:13;;;;;;;0.90;0.90;;;;;;;;;;5117666;28;20214;-60
2022/05/29 02:18:43;;;;;;;1.05;1.02;;;;;;;;;;5117804;28;20211;-60
2022/05/29 02:21:13;;;;;;;0.90;0.85;;;;;;;;;;5117104;28;20640;-60
2022/05/29 02:23:42;;;;;;;1.00;0.80;;;;;;;;;;5117495;28;20202;-60
2022/05/29 02:26:13;;;;;;;1.20;0.98;;;;;;;;;;5116351;28;20482;-60
2022/05/29 02:28:43;;;;;;;1.40;1.00;;;;;;;;;;5117501;28;20252;-60
2022/05/29 02:31:17;;;;;;;1.00;1.00;;;;;;;;;;5116999;28;20485;-60
2022/05/29 02:33:52;;;;;;;1.05;0.90;;;;;;;;;;5117023;28;20215;-60
2022/05/29 02:36:24;;;;;;;0.85;0.85;;;;;;;;;;5117457;28;20593;-60
2022/05/29 02:39:14;;;;;;;1.42;0.93;;;;;;;;;;5118074;28;20219;-60
2022/05/29 02:41:47;;;;;;;0.95;0.90;;;;;;;;;;5117591;28;20249;-60
2022/05/29 02:44:19;;;;;;;0.98;0.90;;;;;;;;;;5117634;28;20207;-60
2022/05/29 02:46:49;;;;;;;1.25;1.10;;;;;;;;;;5117732;28;20202;-60
2022/05/29 02:49:21;;;;;;;1.40;0.90;;;;;;;;;;5116983;28;20314;-60
2022/05/29 02:51:50;;;;;;;0.98;0.88;;;;;;;;;;5116843;28;20210;-60
2022/05/29 02:54:25;;;;;;;1.15;0.90;;;;;;;;;;5117346;28;20195;-60
2022/05/29 02:56:53;;;;;;;1.98;1.00;;;;;;;;;;5130678;27;20255;-60
2022/05/29 02:59:23;;;;;;;1.08;0.98;;;;;;;;;;5138287;27;20198;-60
2022/05/29 03:01:53;;;;;;;0.90;0.90;;;;;;;;;;5138057;27;20226;-60
2022/05/29 03:04:28;;;;;;;0.85;0.80;;;;;;;;;;5136914;27;20229;-60
2022/05/29 03:06:58;;;;;;;1.30;1.02;;;;;;;;;;5137292;28;20197;-60
2022/05/29 03:09:37;;;;;;;1.23;0.80;;;;;;;;;;5138357;28;20577;-60
2022/05/29 03:12:09;;;;;;;1.10;1.00;;;;;;;;;;5138566;28;20198;-61
2022/05/29 03:14:43;;;;;;;1.10;1.00;;;;;;;;;;5137446;28;20837;-61
2022/05/29 03:17:15;;;;;;;1.35;1.20;;;;;;;;;;5137333;28;20198;-60
2022/05/29 03:19:47;;;;;;;0.98;0.90;;;;;;;;;;5137438;28;20215;-61
2022/05/29 03:22:19;;;;;;;0.95;0.95;;;;;;;;;;5137369;28;20244;-60
2022/05/29 03:24:50;;;;;;;1.00;0.90;;;;;;;;;;5136806;28;20198;-61
2022/05/29 03:27:22;;;;;;;1.00;0.90;;;;;;;;;;5137658;28;20198;-60
2022/05/29 03:29:52;;;;;;;1.10;1.00;;;;;;;;;;5137585;28;20202;-60
2022/05/29 03:32:21;;;;;;;1.10;0.98;;;;;;;;;;5137711;28;20198;-60
2022/05/29 03:34:48;;;;;;;1.17;1.08;;;;;;;;;;5138106;28;20205;-60
2022/05/29 03:37:16;;;;;;;1.08;0.98;;;;;;;;;;5140754;27;20202;-61
2022/05/29 03:39:44;;;;;;;1.00;0.80;;;;;;;;;;5141747;27;20202;-60
2022/05/29 03:42:12;;;;;;;0.88;0.88;;;;;;;;;;5141177;27;20229;-60
2022/05/29 03:44:40;;;;;;;1.02;0.93;;;;;;;;;;5140955;27;20202;-60
2022/05/29 03:47:09;;;;;;;0.95;0.93;;;;;;;;;;5141684;27;20612;-60
2022/05/29 03:49:37;;;;;;;0.85;0.85;;;;;;;;;;5140656;27;20202;-60
2022/05/29 03:52:04;;;;;;;1.08;0.98;;;;;;;;;;5141897;27;20198;-60
2022/05/29 03:54:32;;;;;;;1.20;0.80;;;;;;;;;;5141422;27;20574;-60
2022/05/29 03:56:59;;;;;;;1.27;0.95;;;;;;;;;;5141128;27;20255;-60
2022/05/29 03:59:26;;;;;;;1.13;1.02;;;;;;;;;;5140461;27;20221;-60
2022/05/29 04:01:54;;;;;;;0.80;0.80;;;;;;;;;;5140592;27;20214;-60
2022/05/29 04:04:22;;;;;;;1.10;0.98;;;;;;;;;;5140732;27;20208;-60
2022/05/29 04:06:50;;;;;;;0.90;0.90;;;;;;;;;;5141058;27;20213;-60
2022/05/29 04:12:05;;;;;;;0.80;0.80;;;;;;;;;;5140746;27;20695;-60
2022/05/29 04:14:33;;;;;;;1.23;0.90;;;;;;;;;;5140626;27;20281;-60
2022/05/29 04:17:00;;;;;;;0.90;0.90;;;;;;;;;;5141265;27;20210;-60
2022/05/29 04:19:29;;;;;;;0.88;0.88;;;;;;;;;;5139735;27;20202;-60
2022/05/29 04:21:57;;;;;;;1.08;0.90;;;;;;;;;;5140375;27;20229;-60
2022/05/29 04:24:24;;;;;;;0.90;0.90;;;;;;;;;;5140493;27;20213;-61
2022/05/29 04:26:52;;;;;;;1.38;0.90;;;;;;;;;;5140897;27;20217;-60
2022/05/29 04:29:20;;;;;;;1.30;1.20;;;;;;;;;;5140619;27;20212;-61
2022/05/29 04:34:34;;;;;;;1.10;1.00;;;;;;;;;;5140594;27;20235;-60
2022/05/29 04:37:02;;;;;;;1.25;0.95;;;;;;;;;;5139181;27;20202;-60
2022/05/29 04:39:32;;;;;;;1.00;0.90;;;;;;;;;;5140976;27;20476;-61
2022/05/29 04:42:00;;;;;;;0.88;0.88;;;;;;;;;;5140016;27;20278;-60
2022/05/29 04:44:28;;;;;;;1.20;1.10;;;;;;;;;;5139729;27;20195;-61
2022/05/29 04:46:57;;;;;;;1.10;1.00;;;;;;;;;;5140192;27;20202;-60
2022/05/29 04:49:24;;;;;;;1.13;0.90;;;;;;;;;;5139731;27;20202;-60
2022/05/29 04:51:53;;;;;;;1.60;1.05;;;;;;;;;;5140350;27;20202;-60
2022/05/29 04:54:20;;;;;;;1.00;0.90;;;;;;;;;;5139895;27;20224;-60
2022/05/29 04:56:48;;;;;;;1.48;0.90;;;;;;;;;;5140180;27;20238;-61
2022/05/29 04:59:15;;;;;;;1.08;0.90;;;;;;;;;;5140222;27;20718;-60
2022/05/29 05:01:43;;;;;;;1.20;1.02;;;;;;;;;;5140381;27;20725;-60
2022/05/29 05:04:11;;;;;;;1.30;1.00;;;;;;;;;;5140641;27;20210;-61
2022/05/29 05:06:38;;;;;;;1.20;0.93;;;;;;;;;;5140119;27;20274;-60
2022/05/29 05:09:07;;;;;;;1.13;0.90;;;;;;;;;;5140555;27;20217;-61
2022/05/29 05:11:34;;;;;;;1.10;1.00;;;;;;;;;;5139567;27;20199;-60
2022/05/29 05:14:02;;;;;;;0.90;0.80;;;;;;;;;;5139693;27;20297;-60
2022/05/29 05:16:30;;;;;;;0.90;0.90;;;;;;;;;;5139398;27;20693;-60
2022/05/29 05:18:57;;;;;;;1.75;0.90;;;;;;;;;;5139412;27;20209;-61
2022/05/29 05:21:25;;;;;;;1.20;1.08;;;;;;;;;;5140072;27;20226;-60
2022/05/29 05:23:52;;;;;;;1.48;0.95;;;;;;;;;;5139988;27;20212;-60
2022/05/29 05:26:21;;;;;;;1.17;1.08;;;;;;;;;;5140187;27;20202;-60
2022/05/29 05:28:48;;;;;;;1.00;0.95;;;;;;;;;;5140328;27;20213;-60
2022/05/29 05:31:16;;;;;;;1.10;0.90;;;;;;;;;;5138890;27;20205;-60
2022/05/29 05:33:43;;;;;;;0.77;0.77;;;;;;;;;;5139841;27;20267;-60
2022/05/29 05:36:12;;;;;;;0.88;0.88;;;;;;;;;;5138821;27;20207;-60
2022/05/29 05:38:39;;;;;;;1.20;1.10;;;;;;;;;;5139444;27;20225;-60
2022/05/29 05:41:10;;;;;;;1.08;1.00;;;;;;;;;;5139239;27;20206;-60
2022/05/29 05:43:39;;;;;;;1.00;0.90;;;;;;;;;;5139447;27;20577;-60
2022/05/29 05:46:07;;;;;;;1.10;1.00;;;;;;;;;;5139291;27;20241;-60
2022/05/29 05:48:36;;;;;;;1.25;1.02;;;;;;;;;;5138719;27;20546;-60
2022/05/29 05:51:04;;;;;;;1.52;0.90;;;;;;;;;;5139223;27;20262;-60
2022/05/29 05:53:31;;;;;;;0.95;0.93;;;;;;;;;;5139587;27;20198;-61
2022/05/29 05:55:59;;;;;;;1.20;1.10;;;;;;;;;;5138559;27;20233;-60
2022/05/29 05:58:26;;;;;;;1.35;1.17;;;;;;;;;;5139029;27;20288;-61
2022/05/29 06:00:55;;;;;;;1.48;1.13;;;;;;;;;;5138885;27;20210;-60
2022/05/29 06:03:23;;;;;;;1.08;0.90;;;;;;;;;;5138388;27;20214;-61
2022/05/29 06:05:50;;;;;;;1.20;1.00;;;;;;;;;;5138853;27;20616;-60
2022/05/29 06:08:17;;;;;;;0.80;0.80;;;;;;;;;;5138487;27;20209;-60
2022/05/29 06:10:45;;;;;;;1.20;0.90;;;;;;;;;;5139122;27;20210;-67
2022/05/29 06:13:12;;;;;;;1.27;0.90;;;;;;;;;;5138300;27;20202;-60
2022/05/29 06:15:44;;;;;;;1.08;0.93;;;;;;;;;;5138804;27;20210;-60
2022/05/29 06:18:13;;;;;;;1.02;0.80;;;;;;;;;;5138998;27;20293;-60
2022/05/29 06:20:41;;;;;;;1.20;1.00;;;;;;;;;;5138557;27;20202;-60
2022/05/29 06:23:09;;;;;;;1.00;0.80;;;;;;;;;;5138190;27;20518;-60
2022/05/29 06:25:36;;;;;;;1.00;0.90;;;;;;;;;;5137092;27;20205;-60
2022/05/29 06:28:03;;;;;;;1.02;0.80;;;;;;;;;;5138230;27;20202;-60
2022/05/29 06:30:31;;;;;;;1.33;0.85;;;;;;;;;;5138160;27;20201;-60
2022/05/29 06:32:58;;;;;;;0.98;0.93;;;;;;;;;;5137787;27;20198;-61
2022/05/29 06:35:27;;;;;;;1.38;0.90;;;;;;;;;;5138583;27;20210;-61
2022/05/29 06:37:55;;;;;;;1.10;0.90;;;;;;;;;;5137233;27;20221;-60
2022/05/29 06:40:22;;;;;;;1.02;0.70;;;;;;;;;;5137545;27;20198;-60
2022/05/29 06:42:50;;;;;;;1.13;0.88;;;;;;;;;;5137379;27;20225;-60
2022/05/29 06:45:17;;;;;;;1.15;0.80;;;;;;;;;;5137624;27;20198;-60
2022/05/29 06:47:44;;;;;;;0.88;0.88;;;;;;;;;;5137817;27;20205;-61
2022/05/29 06:50:13;;;;;;;0.88;0.88;;;;;;;;;;5137958;27;20480;-60
2022/05/29 06:52:41;;;;;;;0.98;0.90;;;;;;;;;;5137581;27;20225;-60
2022/05/29 06:55:11;;;;;;;0.80;0.80;;;;;;;;;;5138200;27;20600;-60
2022/05/29 06:57:40;;;;;;;1.27;1.02;;;;;;;;;;5137160;27;20221;-61
2022/05/29 07:08:22;;;;;;;1.42;0.75;;;;;;;;;;5136804;28;20189;-61
2022/05/29 07:10:50;;;;;;;0.70;0.70;;;;;;;;;;5138989;27;20210;-60
2022/05/29 07:13:17;;;;;;;0.95;0.68;;;;;;;;;;5144305;27;20229;-60
2022/05/29 07:15:44;;;;;;;1.00;0.70;;;;;;;;;;5144392;27;20201;-60
2022/05/29 07:18:13;;;;;;;0.85;0.73;;;;;;;;;;5144491;27;20224;-61
2022/05/29 07:20:40;;;;;;;1.10;0.82;;;;;;;;;;5143810;27;20202;-60
2022/05/29 07:23:07;;;;;;;0.68;0.63;;;;;;;;;;5144046;27;20226;-60
2022/05/29 07:25:36;;;;;;;0.70;0.70;;;;;;;;;;5144003;27;20209;-60
2022/05/29 07:28:05;;;;;;;1.20;0.80;;;;;;;;;;5143502;27;20228;-61
2022/05/29 07:30:34;;;;;;;0.63;0.50;;;;;;;;;;5143905;27;20202;-60
2022/05/29 07:33:03;;;;;;;1.33;0.80;;;;;;;;;;5144094;27;20206;-60
2022/05/29 07:35:30;;;;;;;0.80;0.80;;;;;;;;;;5144353;27;20266;-60
2022/05/29 07:37:57;;;;;;;0.68;0.60;;;;;;;;;;5143912;27;20209;-60
2022/05/29 07:40:25;;;;;;;1.10;0.60;;;;;;;;;;5143690;27;20198;-60
2022/05/29 07:45:38;;;;;;;1.10;0.75;;;;;;;;;;5143350;27;20282;-60
2022/05/29 07:48:07;;;;;;;2.45;0.75;;;;;;;;;;5143453;27;20475;-60
2022/05/29 07:50:35;;;;;;;0.77;0.77;;;;;;;;;;5143132;27;20198;-60
2022/05/29 07:53:02;;;;;;;1.23;0.70;;;;;;;;;;5142704;27;20190;-61
2022/05/29 07:55:30;;;;;;;1.00;0.85;;;;;;;;;;5143240;27;20228;-60
2022/05/29 07:57:58;;;;;;;1.20;0.82;;;;;;;;;;5143227;27;20518;-60
2022/05/29 08:00:27;;;;;;;1.23;0.60;;;;;;;;;;5142949;27;20202;-60
2022/05/29 08:02:54;;;;;;;1.50;0.80;;;;;;;;;;5142368;27;20222;-60
2022/05/29 08:05:22;;;;;;;1.00;0.68;;;;;;;;;;5142498;27;20217;-60
2022/05/29 08:07:51;;;;;;;1.17;0.80;;;;;;;;;;5143583;27;20202;-61
2022/05/29 08:10:19;;;;;;;1.23;0.80;;;;;;;;;;5143615;27;20624;-60
2022/05/29 08:12:46;;;;;;;1.08;0.70;;;;;;;;;;5143797;27;20198;-61
2022/05/29 08:15:16;;;;;;;1.10;0.75;;;;;;;;;;5143288;27;20745;-60
2022/05/29 08:17:43;;;;;;;1.83;0.82;;;;;;;;;;5143124;27;20213;-61
2022/05/29 08:20:11;;;;;;;1.25;0.60;;;;;;;;;;5142558;27;20511;-60
2022/05/29 08:22:38;;;;;;;1.85;0.80;;;;;;;;;;5141199;27;20624;-60
2022/05/29 08:30:46;;;;;;;2.53;0.80;;;;;;;;;;5140126;27;20235;-61
2022/05/29 08:33:15;;;;;;;1.83;0.70;;;;;;;;;;5139187;27;20198;-60
2022/05/29 08:35:43;;;;;;;1.77;0.93;;;;;;;;;;5139030;27;20198;-60
2022/05/29 08:38:11;;;;;;;2.10;0.95;;;;;;;;;;5139401;27;20213;-61
2022/05/29 08:40:43;;;;;;;0.70;0.70;;;;;;;;;;5139425;27;20600;-60
2022/05/29 08:43:12;;;;;;;3.22;0.73;;;;;;;;;;5139498;27;20222;-61
2022/05/29 08:45:41;;;;;;;1.85;0.75;;;;;;;;;;5138095;27;20202;-60
2022/05/29 08:48:09;;;;;;;2.17;0.77;;;;;;;;;;5140128;27;20237;-61
2022/05/29 08:50:44;;;;;;;0.73;0.65;;;;;;;;;;5138802;27;20205;-60
2022/05/29 08:53:16;;;;;;;1.15;0.77;;;;;;;;;;5138261;27;20262;-60
2022/05/29 08:55:46;;;;;;;2.17;0.80;;;;;;;;;;5138113;27;20613;-61
2022/05/29 08:58:21;;;;;;;2.65;0.70;;;;;;;;;;5138716;27;20517;-60
2022/05/29 09:00:54;;;;;;;1.45;0.90;;;;;;;;;;5138886;27;20208;-60
2022/05/29 09:03:29;;;;;;;1.95;0.85;;;;;;;;;;5138051;27;20279;-61
2022/05/29 09:05:59;;;;;;;2.83;1.20;;;;;;;;;;5138948;27;20662;-60
2022/05/29 09:08:31;;;;;;;2.92;1.00;;;;;;;;;;5138822;27;20628;-61
2022/05/29 09:11:01;;;;;;;1.27;0.70;;;;;;;;;;5138521;27;20202;-61
2022/05/29 09:13:37;;;;;;;1.02;0.73;;;;;;;;;;5138073;27;20201;-60
2022/05/29 09:16:11;;;;;;;1.70;0.73;;;;;;;;;;5137776;27;20213;-61
2022/05/29 09:18:42;;;;;;;0.85;0.68;;;;;;;;;;5138683;27;20198;-60
2022/05/29 09:21:12;;;;;;;1.48;0.80;;;;;;;;;;5138375;27;20689;-61
2022/05/29 09:23:43;;;;;;;1.60;0.70;;;;;;;;;;5138407;27;20226;-60
2022/05/29 09:26:15;;;;;;;1.05;0.85;;;;;;;;;;5137883;27;20587;-61
2022/05/29 09:28:43;;;;;;;2.58;0.90;;;;;;;;;;5138100;27;20216;-61
2022/05/29 09:31:14;;;;;;;1.33;0.80;;;;;;;;;;5137504;27;20441;-61
2022/05/29 09:33:42;;;;;;;2.08;0.68;;;;;;;;;;5136630;27;20237;-60
2022/05/29 09:36:14;;;;;;;1.20;0.70;;;;;;;;;;5137713;27;20198;-60
2022/05/29 09:38:43;;;;;;;0.90;0.63;;;;;;;;;;5138518;27;20217;-61
2022/05/29 09:41:12;;;;;;;1.38;0.70;;;;;;;;;;5137405;27;20199;-60
2022/05/29 09:43:39;;;;;;;1.80;0.90;;;;;;;;;;5138596;27;20601;-60
2022/05/29 09:46:21;;;;;;;1.02;0.65;;;;;;;;;;5138973;27;20245;-60
2022/05/29 09:51:43;;;;;;;1.05;0.70;;;;;;;;;;5137570;27;20282;-60
2022/05/29 09:54:13;;;;;;;1.35;0.73;;;;;;;;;;5137422;27;20628;-60
2022/05/29 09:56:40;;;;;;;2.00;0.70;;;;;;;;;;5137145;27;20234;-60
2022/05/29 09:59:16;;;;;;;1.23;0.80;;;;;;;;;;5137694;27;20202;-60
2022/05/29 10:01:46;;;;;;;2.60;0.90;;;;;;;;;;5136707;27;20208;-60
2022/05/29 10:04:14;;;;;;;1.20;0.85;;;;;;;;;;5137719;27;20290;-60
2022/05/29 10:06:42;;;;;;;1.70;1.15;;;;;;;;;;5137431;27;20210;-60
2022/05/29 10:09:15;;;;;;;2.90;1.00;;;;;;;;;;5137075;27;20206;-60
2022/05/29 10:11:45;;;;;;;1.38;0.98;;;;;;;;;;5137479;27;20201;-61
2022/05/29 10:14:22;;;;;;;1.80;0.95;;;;;;;;;;5137878;27;20289;-61
2022/05/29 10:16:51;;;;;;;1.73;0.90;;;;;;;;;;5136776;27;20564;-60
2022/05/29 10:19:34;;;;;;;1.52;0.88;;;;;;;;;;5135976;27;20202;-68
2022/05/29 10:22:03;;;;;;;0.80;0.70;;;;;;;;;;5136799;27;20212;-61
2022/05/29 10:24:36;;;;;;;2.22;0.80;;;;;;;;;;5136379;27;20240;-60
2022/05/29 10:27:05;;;;;;;1.52;0.55;;;;;;;;;;5136639;27;20208;-61
2022/05/29 10:29:33;;;;;;;1.30;0.70;;;;;;;;;;5136645;27;20228;-60
2022/05/29 10:32:06;;;;;;;1.50;0.80;;;;;;;;;;5137161;27;20202;-60
2022/05/29 10:34:36;;;;;;;0.95;0.80;;;;;;;;;;5136218;27;20197;-61
2022/05/29 10:37:23;;;;;;;1.20;0.80;;;;;;;;;;5129711;27;20213;-61
2022/05/29 10:39:50;;;;;;;1.63;0.63;;;;;;;;;;5136062;27;20297;-61
2022/05/29 10:42:19;;;;;;;0.95;0.85;;;;;;;;;;5136777;27;20203;-61
2022/05/29 10:44:47;;;;;;;1.15;0.65;;;;;;;;;;5136222;27;20237;-61
2022/05/29 10:47:22;;;;;;;0.68;0.60;;;;;;;;;;5126434;27;20214;-61
2022/05/29 10:49:56;;;;;;;2.08;0.70;;;;;;;;;;5115503;28;20213;-60
2022/05/29 10:52:45;;;;;;;1.95;0.95;;;;;;;;;;5115159;28;20217;-60
2022/05/29 10:55:18;;;;;;;1.50;0.80;;;;;;;;;;5115223;28;20203;-61
2022/05/29 10:57:58;;;;;;;1.20;0.70;;;;;;;;;;5114854;28;20245;-61
2022/05/29 11:00:30;;;;;;;1.60;0.70;;;;;;;;;;5114866;28;20577;-60
2022/05/29 11:03:21;;;;;;;0.82;0.47;;;;;;;;;;5134131;27;20297;-61
2022/05/29 11:06:06;;;;;;;0.90;0.80;;;;;;;;;;5135573;27;20208;-60
2022/05/29 11:08:37;;;;;;;0.95;0.70;;;;;;;;;;5125268;27;20208;-60
2022/05/29 11:11:11;;;;;;;1.48;0.77;;;;;;;;;;5136118;28;20568;-60
2022/05/29 11:13:50;;;;;;;1.30;0.77;;;;;;;;;;5135801;28;20588;-60
2022/05/29 11:16:21;;;;;;;1.90;1.00;;;;;;;;;;5135116;28;20495;-60
2022/05/29 11:18:56;;;;;;;1.65;0.85;;;;;;;;;;5135627;28;20208;-60
2022/05/29 11:21:26;;;;;;;2.25;0.70;;;;;;;;;;5134867;28;20209;-61
2022/05/29 11:24:13;;;;;;;1.60;0.90;;;;;;;;;;5135578;28;20834;-60
2022/05/29 11:26:46;;;;;;;1.35;0.80;;;;;;;;;;5115067;28;20282;-61
2022/05/29 11:29:34;;;;;;;0.98;0.80;;;;;;;;;;5131657;28;20410;-61
2022/05/29 11:32:06;;;;;;;1.92;0.63;;;;;;;;;;5134929;28;20593;-60
2022/05/29 11:34:38;;;;;;;1.65;0.80;;;;;;;;;;5135853;28;20190;-61
2022/05/29 11:37:21;;;;;;;0.95;0.70;;;;;;;;;;5133780;28;20207;-61
2022/05/29 11:39:50;;;;;;;0.95;0.70;;;;;;;;;;5134918;28;20202;-61
2022/05/29 11:42:20;;;;;;;0.90;0.60;;;;;;;;;;5133789;28;20278;-61
2022/05/29 11:44:54;;;;;;;0.60;0.50;;;;;;;;;;5134350;28;20222;-60
2022/05/29 11:53:19;;;;;;;0.93;0.52;;;;;;;;;;5134428;28;20601;-61
2022/05/29 11:55:46;;;;;;;1.75;0.60;;;;;;;;;;5133915;28;20248;-61
2022/05/29 11:58:17;;;;;;;1.70;0.60;;;;;;;;;;5137514;27;20210;-60
2022/05/29 12:00:47;;;;;;;1.20;0.85;;;;;;;;;;5138949;27;20201;-60
2022/05/29 12:03:29;;;;;;;1.17;0.63;;;;;;;;;;5139106;27;20194;-61
2022/05/29 12:06:00;;;;;;;2.47;0.60;;;;;;;;;;5139425;27;20208;-60
2022/05/29 12:08:30;;;;;;;0.73;0.70;;;;;;;;;;5139260;27;20194;-60
2022/05/29 12:11:12;;;;;;;2.25;0.70;;;;;;;;;;5139674;27;20672;-61
2022/05/29 12:13:42;;;;;;;0.90;0.80;;;;;;;;;;5138658;27;20488;-59
2022/05/29 12:16:10;;;;;;;0.95;0.55;;;;;;;;;;5138986;27;20198;-59
2022/05/29 12:18:42;;;;;;;0.85;0.60;;;;;;;;;;5138538;27;20198;-59
2022/05/29 12:21:14;;;;;;;1.40;0.65;;;;;;;;;;5138862;27;20206;-60
2022/05/29 12:23:43;;;;;;;1.40;0.70;;;;;;;;;;5138002;27;20283;-61
2022/05/29 12:26:14;;;;;;;2.72;0.80;;;;;;;;;;5138422;27;20191;-60
2022/05/29 12:28:43;;;;;;;1.50;0.75;;;;;;;;;;5139232;27;20604;-60
2022/05/29 12:31:15;;;;;;;1.85;0.65;;;;;;;;;;5137852;27;20198;-60
2022/05/29 12:33:44;;;;;;;1.25;0.73;;;;;;;;;;5136026;27;20293;-60
2022/05/29 12:36:19;;;;;;;1.20;0.93;;;;;;;;;;5129432;27;20190;-60
2022/05/29 12:38:53;;;;;;;1.20;0.60;;;;;;;;;;5129167;27;20199;-61
2022/05/29 12:41:27;;;;;;;0.82;0.80;;;;;;;;;;5128242;27;20195;-61
2022/05/29 12:44:09;;;;;;;1.63;0.70;;;;;;;;;;5126672;27;20223;-60
2022/05/29 12:46:47;;;;;;;1.27;0.70;;;;;;;;;;5126561;27;20603;-60
2022/05/29 12:49:25;;;;;;;1.02;0.60;;;;;;;;;;5127801;27;20308;-60
2022/05/29 12:52:15;;;;;;;2.05;0.75;;;;;;;;;;5125115;27;20203;-61
2022/05/29 12:55:09;;;;;;;1.13;0.80;;;;;;;;;;5116711;28;20199;-60
2022/05/29 12:57:47;;;;;;;0.75;0.73;;;;;;;;;;5117000;28;20238;-60
2022/05/29 13:00:29;;;;;;;0.70;0.70;;;;;;;;;;5116743;28;20213;-61
2022/05/29 13:03:14;;;;;;;0.93;0.50;;;;;;;;;;5117147;28;20215;-61
2022/05/29 13:05:53;;;;;;;0.80;0.60;;;;;;;;;;5075429;28;20222;-60
2022/05/29 13:08:45;;;;;;;1.58;0.77;;;;;;;;;;5115508;28;20306;-60
2022/05/29 13:11:17;;;;;;;1.52;0.60;;;;;;;;;;5116105;28;20590;-60
2022/05/29 13:13:46;;;;;;;1.00;0.68;;;;;;;;;;5116724;28;20201;-61
2022/05/29 13:16:24;;;;;;;1.20;0.60;;;;;;;;;;5121033;27;20286;-60
2022/05/29 13:19:12;;;;;;;0.82;0.52;;;;;;;;;;5137825;27;20212;-60
2022/05/29 13:21:53;;;;;;;0.60;0.60;;;;;;;;;;5137542;27;20221;-60
2022/05/29 13:24:23;;;;;;;0.90;0.60;;;;;;;;;;5136474;27;20222;-60
2022/05/29 13:27:06;;;;;;;0.80;0.60;;;;;;;;;;5136148;27;20269;-61
2022/05/29 13:29:40;;;;;;;0.90;0.60;;;;;;;;;;5135454;27;20747;-61
2022/05/29 13:32:18;;;;;;;0.63;0.50;;;;;;;;;;5136775;27;20206;-61
2022/05/29 13:34:46;;;;;;;1.40;0.73;;;;;;;;;;5132190;27;20197;-60
2022/05/29 13:37:23;;;;;;;1.45;0.50;;;;;;;;;;5118521;27;20199;-61
2022/05/29 13:40:04;;;;;;;0.95;0.50;;;;;;;;;;5115392;28;20195;-61
2022/05/29 13:42:43;;;;;;;0.68;0.60;;;;;;;;;;5131960;27;20202;-60
2022/05/29 13:45:40;;;;;;;1.35;0.70;;;;;;;;;;5135480;27;20591;-60
2022/05/29 13:48:13;;;;;;;0.68;0.63;;;;;;;;;;5135643;27;20213;-60
2022/05/29 13:50:48;;;;;;;0.60;0.57;;;;;;;;;;5129286;27;20491;-60
2022/05/29 13:53:25;;;;;;;0.70;0.70;;;;;;;;;;5120862;27;20206;-60
2022/05/29 13:55:55;;;;;;;0.80;0.60;;;;;;;;;;5114802;27;20199;-60
2022/05/29 14:04:06;;;;;;;1.92;0.80;;;;;;;;;;5122220;27;20325;-61
2022/05/29 14:06:36;;;;;;;0.68;0.65;;;;;;;;;;5115607;27;20305;-60
2022/05/29 14:09:06;;;;;;;1.38;0.70;;;;;;;;;;5114307;28;20198;-60
2022/05/29 14:11:49;;;;;;;0.60;0.60;;;;;;;;;;5132549;27;20495;-60
2022/05/29 14:14:37;;;;;;;0.60;0.60;;;;;;;;;;5135450;27;20205;-60
2022/05/29 14:17:09;;;;;;;0.70;0.60;;;;;;;;;;5131277;27;20644;-60
2022/05/29 14:19:47;;;;;;;0.85;0.60;;;;;;;;;;5135046;27;20202;-60
2022/05/29 14:22:17;;;;;;;0.80;0.50;;;;;;;;;;5134683;27;20209;-60
2022/05/29 14:24:57;;;;;;;0.60;0.50;;;;;;;;;;5135679;27;20225;-61
2022/05/29 14:28:08;;;;;;;1.95;0.50;;;;;;;;;;5134502;27;20203;-60
2022/05/29 14:30:48;;;;;;;1.05;0.70;;;;;;;;;;5071891;28;20272;-61
2022/05/29 14:33:33;;;;;;;1.20;0.70;;;;;;;;;;5132023;27;20619;-60
2022/05/29 14:36:06;;;;;;;1.25;0.65;;;;;;;;;;5135599;27;20281;-60
2022/05/29 14:38:42;;;;;;;2.78;0.80;;;;;;;;;;5134119;27;20194;-61
2022/05/29 14:41:15;;;;;;;3.25;0.73;;;;;;;;;;5134095;27;20752;-60
2022/05/29 14:43:43;;;;;;;0.60;0.60;;;;;;;;;;5134515;27;20463;-60
2022/05/29 14:46:17;;;;;;;1.15;0.70;;;;;;;;;;5133604;27;20230;-60
2022/05/29 14:48:55;;;;;;;1.15;0.50;;;;;;;;;;5134524;27;20325;-61
2022/05/29 14:51:25;;;;;;;1.10;0.73;;;;;;;;;;5135038;27;20201;-60
2022/05/29 14:53:55;;;;;;;1.30;0.70;;;;;;;;;;5135607;27;20198;-60
2022/05/29 14:56:31;;;;;;;2.25;0.82;;;;;;;;;;5134474;27;20229;-60
2022/05/29 14:59:14;;;;;;;1.75;0.80;;;;;;;;;;5134352;27;20194;-60
2022/05/29 15:01:42;;;;;;;0.90;0.70;;;;;;;;;;5134084;27;20648;-60
2022/05/29 15:04:12;;;;;;;0.85;0.63;;;;;;;;;;5132976;27;20194;-60
2022/05/29 15:12:22;;;;;;;0.98;0.50;;;;;;;;;;5085814;28;20240;-60
2022/05/29 15:14:50;;;;;;;1.73;0.68;;;;;;;;;;5135019;28;20201;-60
2022/05/29 15:17:23;;;;;;;1.30;0.50;;;;;;;;;;5134650;28;20505;-60
2022/05/29 15:25:38;;;;;;;1.90;0.70;;;;;;;;;;5134135;28;20245;-60
2022/05/29 15:28:08;;;;;;;0.55;0.50;;;;;;;;;;5134507;28;20221;-60
2022/05/29 15:30:40;;;;;;;0.98;0.52;;;;;;;;;;5134258;28;20194;-61
2022/05/29 15:33:10;;;;;;;0.70;0.60;;;;;;;;;;5137199;27;20194;-61
2022/05/29 15:35:43;;;;;;;1.63;0.52;;;;;;;;;;5138080;27;20209;-60
2022/05/29 15:38:15;;;;;;;2.13;0.65;;;;;;;;;;5137497;27;20490;-61
2022/05/29 15:40:52;;;;;;;1.83;0.70;;;;;;;;;;5139380;27;20202;-61
2022/05/29 15:43:29;;;;;;;1.85;0.70;;;;;;;;;;5139360;27;20208;-60
2022/05/29 15:46:08;;;;;;;1.17;0.40;;;;;;;;;;5138332;27;20225;-60
2022/05/29 15:48:53;;;;;;;0.50;0.50;;;;;;;;;;5137882;27;20208;-60
2022/05/29 15:51:29;;;;;;;1.83;0.70;;;;;;;;;;5121441;27;20296;-60
2022/05/29 15:54:15;;;;;;;0.85;0.50;;;;;;;;;;5138795;27;20212;-60
2022/05/29 15:56:48;;;;;;;1.73;0.50;;;;;;;;;;5129207;27;20230;-61